全部
New Market Airport (New Market, VA) 8W2 天气
|
New Market, VA (8W2)
晴天
静风 |
|
10 °C |
There is no TAF data available at 8W2 or any nearby airports.
8W2近期METAR历史数据
| Date | Time (EDT) | Flight Rules | Wind Dir. | Speed | Type | Height AGL (ft) | Visibility | Temp (°C) | Temp (°F) | Dew Point (°C) | Dew Point (°F) | Rel. Humid. | Pressure | Density Altitude | Remarks |
|---|---|---|---|---|---|---|---|---|---|---|---|---|---|---|---|
| 03-五月 | 20:15 | VFR | Calm | 10 miles | 10° | 50° | -2° | 28° | 42% | 29.96 in Hg | 322 ft | ||||
| 03-五月 | 19:55 | VFR | Calm | 10 miles | 11° | 51° | -2° | 28° | 41% | 29.95 in Hg | 452 ft | ||||
| 03-五月 | 19:35 | VFR | 350° | 3 kt | 10 miles | 13° | 55° | -2° | 28° | 35% | 29.95 in Hg | 692 ft | |||
| 03-五月 | 19:15 | VFR | 350° | 3 kt | 10 miles | 16° | 60° | -6° | 21° | 21% | 29.95 in Hg | 1,052 ft | |||
| 03-五月 | 18:55 | VFR | Calm | 10 miles | 17° | 62° | -8° | 17° | 18% | 29.94 in Hg | 1,182 ft | ||||
| 03-五月 | 18:35 | VFR | 310° | 3 kt | 10 miles | 17° | 62° | -8° | 17° | 17% | 29.94 in Hg | 1,182 ft | |||
| 03-五月 | 18:15 | VFR | Calm | 10 miles | 17° | 62° | -8° | 17° | 17% | 29.95 in Hg | 1,172 ft | ||||
| 03-五月 | 17:55 | VFR | 270° | 7 kt | 10 miles | 17° | 62° | -8° | 17° | 17% | 29.95 in Hg | 1,172 ft | |||
| 03-五月 | 17:35 | VFR | 10° | 5 kt | 10 miles | 17° | 62° | -7° | 19° | 18% | 29.95 in Hg | 1,172 ft | |||
| 03-五月 | 17:15 | VFR | 260° | 9 kt | 10 miles | 18° | 64° | -10° | 14° | 15% | 29.96 in Hg | 1,282 ft | |||
| 03-五月 | 16:55 | VFR | 280° | 4 kt | 10 miles | 18° | 64° | -8° | 17° | 17% | 29.96 in Hg | 1,282 ft | |||
| 03-五月 | 16:35 | VFR | 330° | 5 kt | 10 miles | 17° | 62° | -5° | 23° | 21% | 29.97 in Hg | 1,152 ft | |||
| 03-五月 | 16:15 | VFR | 150° | 3 kt | 10 miles | 17° | 62° | -6° | 21° | 20% | 29.97 in Hg | 1,152 ft | |||
| 03-五月 | 15:55 | VFR | 260° | 5 kt | 10 miles | 17° | 62° | -7° | 19° | 19% | 29.98 in Hg | 1,142 ft | |||
| 03-五月 | 15:35 | VFR | 240° | 9 kt | 10 miles | 17° | 62° | -6° | 21° | 21% | 29.98 in Hg | 1,142 ft | |||
| 03-五月 | 15:15 | VFR | 350° | 4 kt | 10 miles | 16° | 60° | -7° | 19° | 20% | 30.00 in Hg | 1,002 ft | |||
| 03-五月 | 14:55 | VFR | 330° | 7 kt | 10 miles | 16° | 60° | -7° | 19° | 21% | 30.00 in Hg | 1,002 ft | |||
| 03-五月 | 14:35 | VFR | 270° | 3 kt | 10 miles | 16° | 60° | -6° | 21° | 22% | 30.01 in Hg | 992 ft | |||
| 03-五月 | 14:15 | VFR | 240° | 5 kt | 10 miles | 15° | 59° | -6° | 21° | 24% | 30.01 in Hg | 872 ft | |||
| 03-五月 | 13:55 | VFR | 310° | 6 kt | 10 miles | 14° | 57° | -5° | 23° | 25% | 30.02 in Hg | 742 ft | |||
| 03-五月 | 13:35 | VFR | 240° | 6 kt | 10 miles | 15° | 59° | -4° | 24° | 27% | 30.02 in Hg | 862 ft | |||
| 03-五月 | 13:15 | VFR | 330° | 6 kt | 10 miles | 13° | 55° | -5° | 23° | 27% | 30.03 in Hg | 612 ft | |||
| 03-五月 | 12:55 | VFR | 250° | 6 kt | 10 miles | 13° | 55° | -5° | 23° | 28% | 30.04 in Hg | 602 ft | |||
| 03-五月 | 12:35 | VFR | 320° | 4 kt | 10 miles | 13° | 55° | -5° | 23° | 28% | 30.04 in Hg | 602 ft |
登录
| 您的浏览器不支持. 升级您的浏览器 |
